Главная страница
METAR-TAF:

METAR-TAF

Аэропорты :

Гибралтар, Гибралтар

широта: 36-09N, долгота: 005-21W, высота над уровнем моря: 5 м

Текущие метеонаблюдения

Эта сводка был подготовлена 1 час и 19 минут назад, в 20:50 UTC
Ветер 7 Узел от западный-юго-западный
Температура 23°C
Влажность 73%
Давление 1015 hPa
Видимость 10 км и более

METAR: LXGB 242050Z AUTO 24007KT 9999 // NCD 23/18 Q1015

Время: 00:09 (22:09 UTC)

Прогноз

Эта сводка был подготовлена 5 часа и 19 минут назад, в 16:50 UTC
Прогноз действительный с 24-го 18 UTC до 24-го 22 UTC
Ветер 8 Узел от юго-западный
Видимость 10 км и более
небольшая облачность на высоте 2500 фута

TAF: LXGB 241650Z 2418/2422 22008KT 9999 FEW025

Метеонаблюдения и прогнозы для более 4000 аэропортов (сводки METAR и TAF).

Имеющиеся станции представлены на карте желтыми и красными точками.

Чтобы увидеть название станции, наведите на нее мышь.

Затем щелкните, чтобы увидеть метеонаблюдения и метеопрогнозы.

Управление картой: чтобы увеличить масштаб, щелкните зеленые кнопки с черным крестиком; чтобы уменьшить масштаб, щелкните зеленую кнопку с тире; для просмотра соседних карт щелкайте зеленые стрелки.


METAR-TAF: